Time;durP1;ratioP1;P1;durP2;ratioP2;P2;SDS_P1;SDS_P2;PMS_P1;PMS_P2;Temp;Humidity;BMP_temperature;BMP_pressure;BME280_temperature;BME280_humidity;BME280_pressure;Samples;Min_cycle;Max_cycle;Signal;HPM_P1;HPM_P2
2022/07/03 00:00:37;;;;;;;;;;;20.10;59.00;;;;;;5050587;28;19924;-79
2022/07/03 00:03:03;;;;;;;;;;;20.00;59.50;;;;;;5034659;28;20280;-80
2022/07/03 00:05:28;;;;;;;;;;;19.90;60.20;;;;;;5051814;28;20000;-81
2022/07/03 00:07:54;;;;;;;;;;;19.90;61.00;;;;;;5056484;28;19919;-80
2022/07/03 00:10:19;;;;;;;;;;;19.80;61.50;;;;;;5025827;28;19917;-79
2022/07/03 00:12:45;;;;;;;;;;;19.70;61.60;;;;;;5039158;28;20404;-79
2022/07/03 00:15:11;;;;;;;;;;;19.60;61.90;;;;;;5038611;28;19943;-79
2022/07/03 00:17:36;;;;;;;;;;;19.40;61.80;;;;;;5058401;28;19917;-79
2022/07/03 00:20:02;;;;;;;;;;;19.40;62.70;;;;;;5055775;28;20431;-77
2022/07/03 00:22:29;;;;;;;;;;;19.50;62.90;;;;;;5036069;28;19917;-80
2022/07/03 00:25:02;;;;;;;;;;;19.40;62.70;;;;;;5053331;28;19978;-80
2022/07/03 00:27:28;;;;;;;;;;;19.30;63.10;;;;;;5037703;28;20274;-81
2022/07/03 00:29:56;;;;;;;;;;;19.30;63.50;;;;;;5036959;28;19920;-80
2022/07/03 00:32:22;;;;;;;;;;;19.30;63.30;;;;;;5042813;28;19913;-80
2022/07/03 00:34:50;;;;;;;;;;;19.20;63.90;;;;;;5059894;28;19939;-79
2022/07/03 00:37:16;;;;;;;;;;;19.20;64.40;;;;;;5043106;28;20012;-80
2022/07/03 00:39:42;;;;;;;;;;;19.10;65.00;;;;;;5059331;28;19951;-80
2022/07/03 00:42:08;;;;;;;;;;;19.20;64.30;;;;;;5042291;28;19909;-80
2022/07/03 00:44:50;;;;;;;;;;;19.20;63.90;;;;;;5041150;28;19924;-80
2022/07/03 00:47:25;;;;;;;;;;;19.20;63.40;;;;;;5031707;28;19917;-81
2022/07/03 00:49:52;;;;;;;;;;;19.20;63.50;;;;;;5057389;28;19916;-80
2022/07/03 00:52:19;;;;;;;;;;;19.20;64.70;;;;;;5039674;28;19928;-80
2022/07/03 00:54:50;;;;;;;;;;;19.10;64.50;;;;;;5039761;28;20024;-80
2022/07/03 00:57:16;;;;;;;;;;;19.10;65.10;;;;;;5038037;28;20357;-80
2022/07/03 00:59:42;;;;;;;;;;;19.00;65.10;;;;;;5040840;28;19919;-80
2022/07/03 01:02:10;;;;;;;;;;;19.00;65.20;;;;;;5039735;28;19917;-80
2022/07/03 01:04:45;;;;;;;;;;;19.10;65.20;;;;;;5036109;28;19912;-80
2022/07/03 01:07:29;;;;;;;;;;;19.10;65.10;;;;;;5037979;28;19921;-79
2022/07/03 01:10:07;;;;;;;;;;;19.00;64.90;;;;;;5039985;28;19923;-80
2022/07/03 01:12:51;;;;;;;;;;;19.10;64.90;;;;;;5039883;28;19921;-80
2022/07/03 01:15:20;;;;;;;;;;;19.10;64.00;;;;;;5038458;28;19920;-79
2022/07/03 01:17:54;;;;;;;;;;;19.10;64.20;;;;;;5057961;28;19909;-80
2022/07/03 01:20:23;;;;;;;;;;;18.90;65.60;;;;;;5055670;28;19912;-79
2022/07/03 01:22:53;;;;;;;;;;;18.50;66.40;;;;;;5039373;28;19909;-80
2022/07/03 01:25:34;;;;;;;;;;;18.20;67.10;;;;;;5055013;28;19928;-79
2022/07/03 01:28:08;;;;;;;;;;;18.20;67.60;;;;;;5060644;28;19917;-80
2022/07/03 01:30:35;;;;;;;;;;;18.20;68.00;;;;;;5049432;28;19920;-79
2022/07/03 01:33:21;;;;;;;;;;;18.30;67.90;;;;;;5051190;28;20004;-80
2022/07/03 01:35:56;;;;;;;;;;;18.30;69.10;;;;;;5045009;28;19912;-80
2022/07/03 01:38:22;;;;;;;;;;;18.30;68.00;;;;;;5043672;28;19952;-79
2022/07/03 01:40:48;;;;;;;;;;;18.40;67.70;;;;;;5062019;28;19913;-79
2022/07/03 01:43:14;;;;;;;;;;;18.40;68.40;;;;;;5040953;28;19962;-80
2022/07/03 01:45:43;;;;;;;;;;;18.40;68.40;;;;;;5040296;28;19920;-80
2022/07/03 01:48:10;;;;;;;;;;;18.40;68.50;;;;;;5068624;28;19932;-80
2022/07/03 01:50:36;;;;;;;;;;;18.30;67.60;;;;;;5051816;28;19916;-80
2022/07/03 01:53:02;;;;;;;;;;;18.40;67.10;;;;;;5041321;28;19909;-80
2022/07/03 01:55:29;;;;;;;;;;;18.40;67.40;;;;;;5058690;28;19966;-81
2022/07/03 01:57:55;;;;;;;;;;;18.40;67.60;;;;;;5059773;28;19925;-79
2022/07/03 02:00:21;;;;;;;;;;;18.30;67.00;;;;;;5058669;28;19977;-80
2022/07/03 02:02:54;;;;;;;;;;;18.30;68.00;;;;;;5056571;28;19913;-80
2022/07/03 02:05:19;;;;;;;;;;;18.20;68.40;;;;;;5035157;28;19917;-80
2022/07/03 02:07:49;;;;;;;;;;;18.10;68.70;;;;;;5055797;28;19916;-80
2022/07/03 02:10:23;;;;;;;;;;;18.10;68.50;;;;;;5037323;28;19909;-80
2022/07/03 02:12:51;;;;;;;;;;;18.10;68.50;;;;;;5054919;28;19917;-80
2022/07/03 02:15:18;;;;;;;;;;;17.90;69.80;;;;;;5052154;28;19956;-80
2022/07/03 02:17:46;;;;;;;;;;;17.90;69.40;;;;;;5028951;28;20003;-80
2022/07/03 02:20:14;;;;;;;;;;;17.90;69.40;;;;;;5040731;28;20050;-80
2022/07/03 02:22:40;;;;;;;;;;;17.90;69.90;;;;;;5032881;28;19913;-79
2022/07/03 02:25:06;;;;;;;;;;;17.90;70.10;;;;;;5031175;28;20541;-80
2022/07/03 02:27:42;;;;;;;;;;;17.80;70.00;;;;;;5048323;28;19927;-79
2022/07/03 02:30:08;;;;;;;;;;;17.80;70.50;;;;;;5032721;28;19921;-80
2022/07/03 02:32:44;;;;;;;;;;;17.80;70.00;;;;;;5030883;28;21426;-80
2022/07/03 02:35:16;;;;;;;;;;;17.80;70.70;;;;;;5034696;28;19985;-80
2022/07/03 02:37:48;;;;;;;;;;;17.70;71.40;;;;;;5046495;28;20393;-79
2022/07/03 02:40:21;;;;;;;;;;;17.70;71.60;;;;;;5035525;28;19909;-80
2022/07/03 02:43:01;;;;;;;;;;;17.70;71.30;;;;;;5030476;28;20345;-80
2022/07/03 02:45:42;;;;;;;;;;;17.70;70.40;;;;;;5048495;28;19927;-80
2022/07/03 02:48:21;;;;;;;;;;;17.80;70.50;;;;;;5035754;28;19944;-81
2022/07/03 02:50:50;;;;;;;;;;;17.90;70.50;;;;;;5034218;28;19913;-79
2022/07/03 02:53:28;;;;;;;;;;;17.90;70.20;;;;;;5052437;28;19913;-80
2022/07/03 02:55:58;;;;;;;;;;;17.90;70.40;;;;;;5051863;28;19919;-80
2022/07/03 02:58:36;;;;;;;;;;;17.80;70.30;;;;;;5036224;28;20423;-80
2022/07/03 03:01:17;;;;;;;;;;;17.80;70.80;;;;;;5053244;28;19924;-80
2022/07/03 03:03:48;;;;;;;;;;;17.90;71.50;;;;;;5033478;28;19920;-80
2022/07/03 03:06:14;;;;;;;;;;;18.00;70.40;;;;;;5031032;28;19928;-80
2022/07/03 03:08:40;;;;;;;;;;;18.00;71.10;;;;;;5045628;28;20342;-80
2022/07/03 03:11:07;;;;;;;;;;;18.10;70.00;;;;;;5034500;28;19931;-80
2022/07/03 03:13:32;;;;;;;;;;;18.10;70.30;;;;;;5050452;28;20018;-79
2022/07/03 03:16:03;;;;;;;;;;;18.10;70.40;;;;;;5033185;28;19928;-80
2022/07/03 03:18:29;;;;;;;;;;;18.00;70.40;;;;;;5034986;28;19920;-79
2022/07/03 03:20:58;;;;;;;;;;;18.00;70.70;;;;;;5051040;28;19913;-80
2022/07/03 03:23:42;;;;;;;;;;;17.80;71.00;;;;;;5051728;28;19984;-80
2022/07/03 03:26:08;;;;;;;;;;;17.70;71.40;;;;;;5050611;28;20349;-80
2022/07/03 03:28:34;;;;;;;;;;;17.60;71.60;;;;;;5033764;28;19921;-80
2022/07/03 03:30:59;;;;;;;;;;;17.60;71.60;;;;;;5033197;28;20395;-80
2022/07/03 03:33:25;;;;;;;;;;;17.60;71.40;;;;;;5035385;28;20015;-80
2022/07/03 03:35:51;;;;;;;;;;;17.60;71.80;;;;;;5035091;28;19943;-80
2022/07/03 03:38:17;;;;;;;;;;;17.60;72.20;;;;;;5033163;28;19920;-80
2022/07/03 03:40:43;;;;;;;;;;;17.60;71.90;;;;;;5052239;28;20276;-80
2022/07/03 03:43:09;;;;;;;;;;;17.60;72.30;;;;;;5032719;28;20309;-80
2022/07/03 03:45:34;;;;;;;;;;;17.50;72.30;;;;;;5033670;28;19925;-80
2022/07/03 03:48:00;;;;;;;;;;;17.60;72.20;;;;;;5033859;28;19909;-79
2022/07/03 03:50:25;;;;;;;;;;;17.50;72.70;;;;;;5033662;28;19909;-80
2022/07/03 03:52:51;;;;;;;;;;;17.40;73.20;;;;;;5034505;28;19936;-80
2022/07/03 03:55:17;;;;;;;;;;;17.50;72.80;;;;;;5035893;28;19912;-79
2022/07/03 03:57:42;;;;;;;;;;;17.60;72.70;;;;;;5040691;28;19919;-80
2022/07/03 04:00:08;;;;;;;;;;;17.60;72.40;;;;;;5038594;28;19923;-80
2022/07/03 04:02:33;;;;;;;;;;;17.70;72.40;;;;;;5036365;28;19964;-80
2022/07/03 04:04:59;;;;;;;;;;;17.60;72.40;;;;;;5033197;28;19913;-80
2022/07/03 04:07:24;;;;;;;;;;;17.70;72.50;;;;;;5056629;28;20404;-80
2022/07/03 04:09:50;;;;;;;;;;;17.80;72.10;;;;;;5044181;28;19913;-79
2022/07/03 04:12:15;;;;;;;;;;;17.90;72.10;;;;;;5037414;28;19971;-80
2022/07/03 04:14:41;;;;;;;;;;;18.00;72.00;;;;;;5055758;28;19956;-80
2022/07/03 04:17:06;;;;;;;;;;;18.10;72.20;;;;;;5053205;28;20223;-79
2022/07/03 04:19:32;;;;;;;;;;;18.20;72.20;;;;;;5036105;28;19909;-80
2022/07/03 04:21:57;;;;;;;;;;;18.30;72.20;;;;;;5036062;28;19913;-80
2022/07/03 04:24:23;;;;;;;;;;;18.30;72.40;;;;;;5050351;28;19921;-80
2022/07/03 04:26:49;;;;;;;;;;;18.30;72.10;;;;;;5036840;28;19970;-80
2022/07/03 04:29:14;;;;;;;;;;;18.30;72.10;;;;;;5054466;28;19919;-78
2022/07/03 04:31:40;;;;;;;;;;;18.40;71.70;;;;;;5039610;28;19977;-81
2022/07/03 04:34:05;;;;;;;;;;;18.40;72.10;;;;;;5054744;28;19983;-80
2022/07/03 04:36:31;;;;;;;;;;;18.40;72.40;;;;;;5037054;28;19912;-81
2022/07/03 04:38:56;;;;;;;;;;;18.50;72.50;;;;;;5039713;28;19955;-81
2022/07/03 04:41:21;;;;;;;;;;;18.50;72.00;;;;;;5037901;28;19944;-80
2022/07/03 04:43:47;;;;;;;;;;;18.50;71.10;;;;;;5054814;28;19920;-79
2022/07/03 04:46:13;;;;;;;;;;;18.60;70.80;;;;;;5056161;28;19916;-80
2022/07/03 04:48:38;;;;;;;;;;;18.50;71.00;;;;;;5035629;28;19982;-80
2022/07/03 04:51:03;;;;;;;;;;;18.60;71.60;;;;;;5033575;28;19912;-80
2022/07/03 04:53:29;;;;;;;;;;;18.80;70.10;;;;;;5051211;28;19956;-80
2022/07/03 04:55:54;;;;;;;;;;;18.90;68.40;;;;;;5030546;28;19913;-80
2022/07/03 04:58:20;;;;;;;;;;;19.00;67.10;;;;;;5019853;28;19909;-80
2022/07/03 05:00:46;;;;;;;;;;;19.10;66.60;;;;;;5028090;28;19943;-79
2022/07/03 05:03:12;;;;;;;;;;;19.30;65.00;;;;;;5053891;28;20386;-80
2022/07/03 05:05:37;;;;;;;;;;;19.40;64.50;;;;;;5053505;28;19943;-80
2022/07/03 05:08:03;;;;;;;;;;;19.40;64.40;;;;;;5042727;22;20400;-80
2022/07/03 05:10:29;;;;;;;;;;;19.40;65.40;;;;;;5023786;28;19976;-80
2022/07/03 05:12:54;;;;;;;;;;;19.50;64.90;;;;;;5031312;28;19913;-80
2022/07/03 05:15:20;;;;;;;;;;;19.40;64.80;;;;;;5029404;28;20004;-79
2022/07/03 05:17:45;;;;;;;;;;;19.40;64.60;;;;;;5025740;28;19909;-80
2022/07/03 05:20:23;;;;;;;;;;;19.50;64.40;;;;;;5033449;28;19948;-79
2022/07/03 05:22:49;;;;;;;;;;;19.50;64.40;;;;;;5034215;28;20008;-79
2022/07/03 05:25:15;;;;;;;;;;;19.50;64.40;;;;;;5016426;28;20063;-79
2022/07/03 05:27:40;;;;;;;;;;;19.60;65.00;;;;;;5034601;28;19910;-80
2022/07/03 05:30:06;;;;;;;;;;;19.60;65.20;;;;;;5031356;28;19940;-82
2022/07/03 05:32:32;;;;;;;;;;;19.80;65.10;;;;;;5026638;28;19909;-81
2022/07/03 05:34:57;;;;;;;;;;;20.10;63.50;;;;;;5026724;28;19944;-81
2022/07/03 05:37:22;;;;;;;;;;;20.10;63.40;;;;;;5014537;28;19913;-82
2022/07/03 05:39:48;;;;;;;;;;;20.20;63.40;;;;;;5029628;28;19913;-81
2022/07/03 05:42:13;;;;;;;;;;;20.30;62.60;;;;;;5026785;28;19924;-81
2022/07/03 05:44:39;;;;;;;;;;;20.50;61.70;;;;;;5026794;28;19996;-82
2022/07/03 05:47:04;;;;;;;;;;;20.60;61.10;;;;;;5026717;28;19928;-81
2022/07/03 05:49:30;;;;;;;;;;;20.80;61.00;;;;;;5029675;28;19936;-80
2022/07/03 05:51:55;;;;;;;;;;;20.90;61.30;;;;;;5007617;28;19913;-79
2022/07/03 05:54:21;;;;;;;;;;;21.00;60.70;;;;;;5034538;28;19913;-80
2022/07/03 05:56:46;;;;;;;;;;;21.00;61.00;;;;;;5028382;28;19917;-82
2022/07/03 05:59:11;;;;;;;;;;;20.90;61.50;;;;;;5022636;28;20387;-81
2022/07/03 06:01:37;;;;;;;;;;;20.70;62.10;;;;;;5027973;28;19952;-82
2022/07/03 06:04:02;;;;;;;;;;;20.50;62.60;;;;;;5029155;28;19910;-82
2022/07/03 06:06:28;;;;;;;;;;;20.40;62.50;;;;;;5025756;28;19960;-82
2022/07/03 06:08:53;;;;;;;;;;;20.20;63.00;;;;;;5036016;28;20256;-82
2022/07/03 06:11:19;;;;;;;;;;;20.20;62.90;;;;;;5033228;28;19912;-82
2022/07/03 06:13:44;;;;;;;;;;;20.10;62.10;;;;;;5018997;28;20346;-83
2022/07/03 06:16:09;;;;;;;;;;;20.10;62.00;;;;;;5036423;28;19915;-83
2022/07/03 06:18:35;;;;;;;;;;;19.90;62.80;;;;;;5034722;28;19925;-81
2022/07/03 06:21:00;;;;;;;;;;;19.90;63.20;;;;;;5028914;28;20016;-82
2022/07/03 06:23:26;;;;;;;;;;;19.90;62.90;;;;;;5029212;28;20004;-83
2022/07/03 06:25:51;;;;;;;;;;;19.90;63.40;;;;;;5030293;28;19922;-82
2022/07/03 06:28:17;;;;;;;;;;;20.00;63.60;;;;;;5016438;28;20054;-82
2022/07/03 06:30:43;;;;;;;;;;;20.20;62.20;;;;;;5006803;28;19914;-81
2022/07/03 06:33:08;;;;;;;;;;;20.30;61.60;;;;;;5016430;28;19909;-82
2022/07/03 06:35:34;;;;;;;;;;;20.40;61.40;;;;;;5023823;28;20014;-82
2022/07/03 06:38:03;;;;;;;;;;;20.50;60.70;;;;;;5010772;28;20299;-82
2022/07/03 06:40:28;;;;;;;;;;;20.60;60.60;;;;;;5034314;28;19999;-83
2022/07/03 06:42:54;;;;;;;;;;;20.70;60.00;;;;;;5035996;28;19970;-82
2022/07/03 06:45:19;;;;;;;;;;;20.90;60.20;;;;;;5017998;28;19974;-83
2022/07/03 06:47:44;;;;;;;;;;;20.90;59.90;;;;;;5032824;28;19913;-83
2022/07/03 06:50:10;;;;;;;;;;;21.00;59.50;;;;;;5031111;28;19914;-82
2022/07/03 06:52:35;;;;;;;;;;;21.10;59.50;;;;;;5031561;28;20318;-80
2022/07/03 06:55:01;;;;;;;;;;;21.10;58.80;;;;;;5018683;28;19913;-82
2022/07/03 06:57:26;;;;;;;;;;;21.20;58.90;;;;;;5030820;28;19920;-82
2022/07/03 06:59:52;;;;;;;;;;;21.30;58.00;;;;;;5026690;28;20217;-81
2022/07/03 07:02:17;;;;;;;;;;;21.30;58.10;;;;;;5010280;28;20001;-82
2022/07/03 07:04:43;;;;;;;;;;;21.40;56.60;;;;;;5032640;28;19919;-82
2022/07/03 07:07:08;;;;;;;;;;;21.60;56.20;;;;;;5031941;28;19917;-81
2022/07/03 07:09:35;;;;;;;;;;;21.60;56.20;;;;;;5033432;28;21286;-83
2022/07/03 07:12:01;;;;;;;;;;;21.60;56.70;;;;;;5004441;28;20423;-82
2022/07/03 07:14:26;;;;;;;;;;;21.50;56.70;;;;;;5017091;28;19921;-82
2022/07/03 07:16:52;;;;;;;;;;;21.50;56.20;;;;;;5029024;28;19948;-82
2022/07/03 07:19:17;;;;;;;;;;;21.60;56.80;;;;;;5024933;28;19914;-83
2022/07/03 07:21:42;;;;;;;;;;;21.60;55.90;;;;;;5034359;28;19967;-82
2022/07/03 07:24:08;;;;;;;;;;;21.80;55.40;;;;;;5006978;28;20423;-83
2022/07/03 07:26:33;;;;;;;;;;;21.70;55.40;;;;;;5015800;28;19925;-83
2022/07/03 07:28:59;;;;;;;;;;;21.80;56.10;;;;;;5025484;28;20000;-83
2022/07/03 07:31:24;;;;;;;;;;;21.90;55.80;;;;;;5028417;28;19967;-83
2022/07/03 07:33:50;;;;;;;;;;;22.00;56.20;;;;;;5009537;28;19917;-82
2022/07/03 07:36:15;;;;;;;;;;;22.10;56.00;;;;;;5025173;28;19909;-83
2022/07/03 07:38:41;;;;;;;;;;;22.10;55.10;;;;;;5021706;28;19992;-83
2022/07/03 07:41:06;;;;;;;;;;;22.10;55.00;;;;;;5010403;28;20053;-83
2022/07/03 07:43:31;;;;;;;;;;;22.20;55.00;;;;;;5023401;28;19910;-83
2022/07/03 07:45:57;;;;;;;;;;;22.20;54.70;;;;;;5033338;28;19928;-82
2022/07/03 07:48:22;;;;;;;;;;;22.20;55.40;;;;;;5027762;28;19949;-83
2022/07/03 07:50:49;;;;;;;;;;;22.30;54.40;;;;;;5019626;28;19917;-82
2022/07/03 07:53:15;;;;;;;;;;;22.40;54.50;;;;;;5017636;28;19917;-82
2022/07/03 07:55:40;;;;;;;;;;;22.40;54.70;;;;;;5034152;28;20015;-83
2022/07/03 07:58:06;;;;;;;;;;;22.40;54.90;;;;;;5011205;28;19909;-82
2022/07/03 08:00:32;;;;;;;;;;;22.50;54.30;;;;;;5029169;28;20464;-82
2022/07/03 08:05:41;;;;;;;;;;;22.50;53.90;;;;;;5026973;28;19924;-82
2022/07/03 08:08:16;;;;;;;;;;;22.60;52.80;;;;;;5031015;28;19921;-82
2022/07/03 08:10:43;;;;;;;;;;;22.80;52.90;;;;;;5022021;28;20274;-82
2022/07/03 08:13:09;;;;;;;;;;;22.80;53.30;;;;;;5003554;28;19914;-81
2022/07/03 08:15:35;;;;;;;;;;;22.80;52.90;;;;;;5035647;28;19932;-82
2022/07/03 08:18:01;;;;;;;;;;;22.90;53.20;;;;;;5014901;28;20099;-83
2022/07/03 08:20:26;;;;;;;;;;;23.00;52.60;;;;;;5023874;28;19916;-83
2022/07/03 08:22:52;;;;;;;;;;;23.10;52.20;;;;;;5017396;28;19910;-82
2022/07/03 08:25:18;;;;;;;;;;;23.10;52.40;;;;;;5028575;28;19971;-82
2022/07/03 08:27:43;;;;;;;;;;;23.20;52.50;;;;;;5037818;28;19924;-80
2022/07/03 08:30:09;;;;;;;;;;;23.20;52.30;;;;;;5035238;28;19921;-81
2022/07/03 08:32:34;;;;;;;;;;;23.10;52.30;;;;;;5029507;28;19921;-82
2022/07/03 08:35:00;;;;;;;;;;;23.30;51.60;;;;;;5037848;28;19921;-82
2022/07/03 08:37:28;;;;;;;;;;;23.30;50.90;;;;;;5032869;28;19910;-81
2022/07/03 08:39:54;;;;;;;;;;;23.40;51.60;;;;;;5042207;28;19913;-80
2022/07/03 08:42:20;;;;;;;;;;;23.40;51.90;;;;;;5030740;28;20611;-81
2022/07/03 08:44:45;;;;;;;;;;;23.40;51.60;;;;;;5021726;28;19917;-81
2022/07/03 08:47:11;;;;;;;;;;;23.50;51.50;;;;;;5029337;28;20007;-81
2022/07/03 08:49:37;;;;;;;;;;;23.50;50.90;;;;;;5034215;28;19932;-83
2022/07/03 08:52:03;;;;;;;;;;;23.50;51.40;;;;;;5016002;28;19936;-81
2022/07/03 08:54:29;;;;;;;;;;;23.60;51.60;;;;;;5009717;28;20275;-82
2022/07/03 08:56:54;;;;;;;;;;;23.70;50.80;;;;;;5034645;28;20363;-81
2022/07/03 08:59:23;;;;;;;;;;;23.80;50.50;;;;;;5016798;28;19917;-82
2022/07/03 09:01:48;;;;;;;;;;;23.80;51.10;;;;;;5029558;28;20303;-82
2022/07/03 09:04:14;;;;;;;;;;;23.70;50.50;;;;;;5029270;28;19916;-83
2022/07/03 09:06:40;;;;;;;;;;;23.70;50.30;;;;;;5002982;28;19917;-82
2022/07/03 09:09:06;;;;;;;;;;;23.60;50.90;;;;;;5029879;28;19924;-82
2022/07/03 09:11:32;;;;;;;;;;;23.90;51.20;;;;;;5018214;28;19913;-82
2022/07/03 09:13:57;;;;;;;;;;;24.00;50.30;;;;;;5028145;28;19936;-82
2022/07/03 09:16:23;;;;;;;;;;;24.00;49.70;;;;;;5036273;28;19913;-81
2022/07/03 09:18:48;;;;;;;;;;;24.00;50.50;;;;;;5017762;28;19913;-82
2022/07/03 09:21:15;;;;;;;;;;;24.00;50.50;;;;;;5037414;28;19913;-82
2022/07/03 09:23:42;;;;;;;;;;;24.00;51.10;;;;;;5024905;28;20348;-83
2022/07/03 09:26:14;;;;;;;;;;;24.10;50.50;;;;;;5021819;28;19925;-82
2022/07/03 09:28:43;;;;;;;;;;;24.10;50.40;;;;;;5040173;28;19917;-83
2022/07/03 09:31:09;;;;;;;;;;;24.10;51.00;;;;;;5038704;28;19932;-84
2022/07/03 09:33:34;;;;;;;;;;;24.00;50.80;;;;;;5010631;28;19917;-81
2022/07/03 09:36:00;;;;;;;;;;;24.00;50.90;;;;;;5020776;28;19924;-83
2022/07/03 09:38:25;;;;;;;;;;;24.00;51.80;;;;;;5012713;28;19972;-83
2022/07/03 09:40:56;;;;;;;;;;;24.00;50.90;;;;;;5040168;28;19913;-83
2022/07/03 09:43:24;;;;;;;;;;;24.20;51.00;;;;;;5015112;28;19966;-81
2022/07/03 09:45:53;;;;;;;;;;;24.30;50.00;;;;;;5015489;28;20493;-82
2022/07/03 09:48:25;;;;;;;;;;;24.30;50.10;;;;;;5038417;28;19913;-82
2022/07/03 09:51:10;;;;;;;;;;;24.20;50.30;;;;;;5031248;28;19913;-82
2022/07/03 09:53:44;;;;;;;;;;;24.10;50.40;;;;;;5034972;28;19909;-82
2022/07/03 09:56:10;;;;;;;;;;;24.30;50.00;;;;;;5034909;28;19913;-83
2022/07/03 09:58:36;;;;;;;;;;;24.40;50.10;;;;;;5030302;28;20576;-82
2022/07/03 10:01:20;;;;;;;;;;;24.40;49.70;;;;;;5033310;28;19984;-80
2022/07/03 10:03:48;;;;;;;;;;;24.50;51.20;;;;;;5031610;28;19917;-83
2022/07/03 10:06:14;;;;;;;;;;;24.70;48.90;;;;;;5040950;28;19971;-81
2022/07/03 10:08:41;;;;;;;;;;;25.00;49.00;;;;;;5011702;28;19960;-80
2022/07/03 10:11:07;;;;;;;;;;;25.00;48.90;;;;;;5045169;28;19910;-81
2022/07/03 10:13:33;;;;;;;;;;;25.00;48.30;;;;;;5022680;28;20470;-82
2022/07/03 10:15:58;;;;;;;;;;;24.90;49.00;;;;;;5032790;28;19917;-83
2022/07/03 10:18:26;;;;;;;;;;;25.00;48.90;;;;;;5036138;28;20009;-82
2022/07/03 10:20:52;;;;;;;;;;;25.00;48.60;;;;;;5019170;28;20352;-80
2022/07/03 10:23:21;;;;;;;;;;;25.20;47.80;;;;;;5028205;28;19924;-82
2022/07/03 10:25:49;;;;;;;;;;;25.40;47.50;;;;;;5023754;28;19921;-83
2022/07/03 10:28:15;;;;;;;;;;;25.40;47.30;;;;;;5022861;28;19913;-82
2022/07/03 10:30:42;;;;;;;;;;;25.40;47.40;;;;;;5018945;28;19909;-82
2022/07/03 10:33:08;;;;;;;;;;;25.50;48.00;;;;;;5017898;28;19914;-82
2022/07/03 10:35:35;;;;;;;;;;;25.60;47.40;;;;;;5016523;28;19979;-81
2022/07/03 10:38:01;;;;;;;;;;;25.50;47.10;;;;;;5030243;28;19919;-83
2022/07/03 10:46:12;;;;;;;;;;;25.20;47.50;;;;;;5026950;28;19989;-81
2022/07/03 10:48:56;;;;;;;;;;;25.40;47.20;;;;;;5034643;28;19924;-82
2022/07/03 10:51:22;;;;;;;;;;;25.50;47.50;;;;;;5033666;28;19909;-81
2022/07/03 10:53:48;;;;;;;;;;;25.40;46.90;;;;;;5014113;28;19959;-82
2022/07/03 10:56:14;;;;;;;;;;;25.50;47.40;;;;;;5026068;28;20417;-81
2022/07/03 10:58:56;;;;;;;;;;;25.70;47.20;;;;;;5018977;28;19917;-81
2022/07/03 11:01:32;;;;;;;;;;;26.00;46.00;;;;;;5035345;28;19988;-79
2022/07/03 11:03:59;;;;;;;;;;;26.30;45.50;;;;;;5018621;28;19920;-82
2022/07/03 11:06:51;;;;;;;;;;;26.50;43.30;;;;;;5015161;28;19920;-82
2022/07/03 11:09:16;;;;;;;;;;;26.50;44.40;;;;;;5004424;28;20405;-81
2022/07/03 11:11:54;;;;;;;;;;;26.40;44.80;;;;;;5034720;28;19943;-79
2022/07/03 11:14:21;;;;;;;;;;;26.50;44.50;;;;;;5030847;28;20103;-81
2022/07/03 11:16:46;;;;;;;;;;;26.40;44.20;;;;;;5025694;28;19913;-82
2022/07/03 11:19:12;;;;;;;;;;;26.20;44.80;;;;;;5013919;28;19928;-80
2022/07/03 11:21:41;;;;;;;;;;;26.00;45.20;;;;;;5010163;28;19914;-81
2022/07/03 11:24:25;;;;;;;;;;;26.10;45.60;;;;;;5026843;28;19967;-82
2022/07/03 11:27:09;;;;;;;;;;;26.10;45.30;;;;;;5031484;28;20027;-84
2022/07/03 11:29:36;;;;;;;;;;;26.10;44.40;;;;;;5020571;28;19921;-80
2022/07/03 11:32:21;;;;;;;;;;;26.20;45.50;;;;;;5001720;28;20142;-82
2022/07/03 11:34:47;;;;;;;;;;;26.20;44.80;;;;;;5003329;28;19916;-82
2022/07/03 11:37:19;;;;;;;;;;;26.30;44.50;;;;;;5020610;28;19979;-81
2022/07/03 11:39:45;;;;;;;;;;;26.50;44.90;;;;;;5035566;28;19913;-82
2022/07/03 11:42:10;;;;;;;;;;;26.60;44.80;;;;;;5030841;28;19910;-82
2022/07/03 11:44:35;;;;;;;;;;;26.60;44.50;;;;;;5018045;28;19948;-82
2022/07/03 11:47:01;;;;;;;;;;;26.70;44.40;;;;;;5017517;28;19918;-82
2022/07/03 11:49:27;;;;;;;;;;;26.80;44.20;;;;;;5035540;28;19932;-82
2022/07/03 11:51:58;;;;;;;;;;;26.80;44.10;;;;;;5021762;28;19913;-82
2022/07/03 11:54:23;;;;;;;;;;;26.60;43.90;;;;;;5002968;28;19917;-81
2022/07/03 11:56:49;;;;;;;;;;;26.50;43.60;;;;;;5014575;28;19917;-82
2022/07/03 11:59:14;;;;;;;;;;;26.50;43.70;;;;;;5035957;28;19910;-81
2022/07/03 12:01:40;;;;;;;;;;;26.50;42.80;;;;;;5033385;28;20325;-82
2022/07/03 12:04:15;;;;;;;;;;;26.60;41.60;;;;;;5035874;28;20363;-82
2022/07/03 12:06:43;;;;;;;;;;;26.60;42.10;;;;;;5032350;28;19921;-80
2022/07/03 12:09:29;;;;;;;;;;;26.50;41.70;;;;;;5014566;28;20372;-81
2022/07/03 12:12:04;;;;;;;;;;;26.50;42.90;;;;;;5021451;28;19914;-81
2022/07/03 12:14:37;;;;;;;;;;;26.60;41.10;;;;;;5017116;28;19921;-81
2022/07/03 12:17:03;;;;;;;;;;;26.50;42.10;;;;;;5014576;28;19917;-81
2022/07/03 12:19:29;;;;;;;;;;;26.60;42.60;;;;;;5023959;28;19958;-80
2022/07/03 12:21:54;;;;;;;;;;;26.70;41.90;;;;;;5041810;28;19924;-81
2022/07/03 12:24:20;;;;;;;;;;;26.60;42.80;;;;;;5027907;28;19910;-79
2022/07/03 12:26:47;;;;;;;;;;;26.70;43.10;;;;;;5012814;28;20349;-82
2022/07/03 12:29:13;;;;;;;;;;;26.50;42.20;;;;;;5038034;28;19913;-81
2022/07/03 12:31:40;;;;;;;;;;;26.40;41.50;;;;;;5037165;28;19932;-81
2022/07/03 12:34:05;;;;;;;;;;;26.30;41.10;;;;;;5034349;28;19923;-81
2022/07/03 12:36:31;;;;;;;;;;;26.20;41.50;;;;;;5010098;28;19917;-81
2022/07/03 12:38:57;;;;;;;;;;;26.30;41.90;;;;;;5035082;28;20415;-81
2022/07/03 12:41:23;;;;;;;;;;;26.50;40.40;;;;;;5018973;28;19910;-82
2022/07/03 12:43:49;;;;;;;;;;;26.60;40.00;;;;;;5034692;28;20000;-82
2022/07/03 12:46:17;;;;;;;;;;;26.60;39.10;;;;;;5023464;28;19940;-82
2022/07/03 12:48:49;;;;;;;;;;;26.70;39.20;;;;;;5039627;28;20423;-82
2022/07/03 12:51:15;;;;;;;;;;;26.90;38.50;;;;;;5037266;28;19927;-82
2022/07/03 12:53:41;;;;;;;;;;;27.00;38.70;;;;;;5016546;28;20007;-81
2022/07/03 12:56:08;;;;;;;;;;;27.00;38.40;;;;;;5035890;28;19994;-81
2022/07/03 13:01:26;;;;;;;;;;;27.20;38.50;;;;;;5033797;28;20335;-81
2022/07/03 13:03:51;;;;;;;;;;;27.10;39.60;;;;;;5033947;28;19913;-82
2022/07/03 13:06:17;;;;;;;;;;;27.10;39.80;;;;;;5027591;28;19925;-81
2022/07/03 13:08:58;;;;;;;;;;;27.10;40.80;;;;;;5022245;28;19932;-82
2022/07/03 13:11:34;;;;;;;;;;;27.30;40.90;;;;;;5034789;28;19936;-79
2022/07/03 13:14:10;;;;;;;;;;;27.30;40.60;;;;;;5015867;28;20360;-83
2022/07/03 13:16:36;;;;;;;;;;;27.10;40.70;;;;;;5017245;28;20421;-82
2022/07/03 13:19:04;;;;;;;;;;;27.00;41.20;;;;;;5027859;28;20384;-82
2022/07/03 13:21:29;;;;;;;;;;;26.70;41.60;;;;;;5009150;28;20515;-82
2022/07/03 13:23:55;;;;;;;;;;;26.60;42.10;;;;;;5031800;28;19929;-81
2022/07/03 13:26:21;;;;;;;;;;;26.60;41.50;;;;;;5033317;28;19968;-80
2022/07/03 13:28:46;;;;;;;;;;;26.60;41.10;;;;;;5019586;28;19913;-80
2022/07/03 13:31:11;;;;;;;;;;;26.60;41.00;;;;;;5013620;28;20004;-80
2022/07/03 13:33:37;;;;;;;;;;;26.50;41.40;;;;;;5011050;28;20015;-81
2022/07/03 13:36:02;;;;;;;;;;;26.30;41.90;;;;;;5041232;28;20014;-80
2022/07/03 13:38:28;;;;;;;;;;;26.30;41.60;;;;;;5035212;28;19901;-80
2022/07/03 13:40:53;;;;;;;;;;;26.50;42.20;;;;;;5024634;28;19945;-81
2022/07/03 13:43:19;;;;;;;;;;;26.50;41.70;;;;;;5040552;28;19921;-81
2022/07/03 13:45:44;;;;;;;;;;;26.60;41.00;;;;;;5040353;28;19917;-81
2022/07/03 13:48:10;;;;;;;;;;;26.80;41.40;;;;;;5023726;28;19913;-81
2022/07/03 13:50:35;;;;;;;;;;;26.90;40.20;;;;;;5013923;28;19996;-81
2022/07/03 13:53:01;;;;;;;;;;;26.60;41.00;;;;;;5024727;28;19917;-81
2022/07/03 13:55:26;;;;;;;;;;;26.40;41.90;;;;;;5029096;28;19925;-81
2022/07/03 13:57:52;;;;;;;;;;;26.30;41.80;;;;;;5014469;28;19936;-80
2022/07/03 14:00:17;;;;;;;;;;;26.30;42.70;;;;;;5032589;28;19952;-81
2022/07/03 14:02:43;;;;;;;;;;;26.30;42.70;;;;;;5028881;28;19917;-81
2022/07/03 14:05:08;;;;;;;;;;;26.20;42.90;;;;;;5034286;28;19901;-81
2022/07/03 14:07:34;;;;;;;;;;;26.10;44.00;;;;;;5028755;28;19947;-80
2022/07/03 14:10:00;;;;;;;;;;;26.20;44.00;;;;;;5028245;28;19909;-81
2022/07/03 14:12:25;;;;;;;;;;;26.40;43.70;;;;;;5014138;28;19999;-80
2022/07/03 14:14:51;;;;;;;;;;;26.50;43.40;;;;;;5027842;28;19913;-81
2022/07/03 14:17:16;;;;;;;;;;;26.50;42.50;;;;;;5017160;28;19929;-82
2022/07/03 14:19:41;;;;;;;;;;;26.60;42.00;;;;;;5027130;28;19921;-80
2022/07/03 14:22:07;;;;;;;;;;;26.50;41.90;;;;;;5020692;28;19921;-82
2022/07/03 14:24:32;;;;;;;;;;;26.50;41.80;;;;;;5031392;28;19924;-81
2022/07/03 14:32:29;;;;;;;;;;;26.70;41.60;;;;;;5032878;28;19920;-81
2022/07/03 14:34:54;;;;;;;;;;;26.80;41.60;;;;;;5031305;28;19917;-82